sensor_id;sensor_type;location;lat;lon;timestamp;P1;durP1;ratioP1;P2;durP2;ratioP2
20511;SDS011;10414;52.074;5.126;2023-09-08T00:02:05;12.68;;;7.88;;
20511;SDS011;10414;52.074;5.126;2023-09-08T00:04:34;12.45;;;8.25;;
20511;SDS011;10414;52.074;5.126;2023-09-08T00:07:02;11.60;;;8.15;;
20511;SDS011;10414;52.074;5.126;2023-09-08T00:09:29;13.75;;;9.23;;
20511;SDS011;10414;52.074;5.126;2023-09-08T00:11:56;15.10;;;9.75;;
20511;SDS011;10414;52.074;5.126;2023-09-08T00:14:23;17.60;;;8.93;;
20511;SDS011;10414;52.074;5.126;2023-09-08T00:16:51;14.40;;;9.30;;
20511;SDS011;10414;52.074;5.126;2023-09-08T00:19:19;13.82;;;8.57;;
20511;SDS011;10414;52.074;5.126;2023-09-08T00:21:46;14.63;;;8.82;;
20511;SDS011;10414;52.074;5.126;2023-09-08T00:24:18;13.07;;;9.13;;
20511;SDS011;10414;52.074;5.126;2023-09-08T00:26:45;16.52;;;9.68;;
20511;SDS011;10414;52.074;5.126;2023-09-08T00:29:11;15.55;;;9.77;;
20511;SDS011;10414;52.074;5.126;2023-09-08T00:31:38;13.40;;;9.10;;
20511;SDS011;10414;52.074;5.126;2023-09-08T00:34:05;14.63;;;9.90;;
20511;SDS011;10414;52.074;5.126;2023-09-08T00:36:35;12.60;;;9.52;;
20511;SDS011;10414;52.074;5.126;2023-09-08T00:39:02;13.23;;;10.13;;
20511;SDS011;10414;52.074;5.126;2023-09-08T00:41:31;13.30;;;9.85;;
20511;SDS011;10414;52.074;5.126;2023-09-08T00:43:58;15.68;;;10.27;;
20511;SDS011;10414;52.074;5.126;2023-09-08T00:46:29;14.00;;;9.90;;
20511;SDS011;10414;52.074;5.126;2023-09-08T00:48:56;13.95;;;10.20;;
20511;SDS011;10414;52.074;5.126;2023-09-08T00:51:23;12.48;;;9.88;;
20511;SDS011;10414;52.074;5.126;2023-09-08T00:53:54;15.80;;;10.68;;
20511;SDS011;10414;52.074;5.126;2023-09-08T00:56:23;15.95;;;10.75;;
20511;SDS011;10414;52.074;5.126;2023-09-08T00:58:51;15.55;;;10.65;;
20511;SDS011;10414;52.074;5.126;2023-09-08T01:01:18;19.38;;;10.90;;
20511;SDS011;10414;52.074;5.126;2023-09-08T01:03:47;14.05;;;10.48;;
20511;SDS011;10414;52.074;5.126;2023-09-08T01:06:14;14.77;;;10.85;;
20511;SDS011;10414;52.074;5.126;2023-09-08T01:08:44;19.48;;;10.68;;
20511;SDS011;10414;52.074;5.126;2023-09-08T01:11:11;17.05;;;10.85;;
20511;SDS011;10414;52.074;5.126;2023-09-08T01:13:38;16.83;;;11.00;;
20511;SDS011;10414;52.074;5.126;2023-09-08T01:16:06;16.50;;;10.25;;
20511;SDS011;10414;52.074;5.126;2023-09-08T01:18:33;17.60;;;10.98;;
20511;SDS011;10414;52.074;5.126;2023-09-08T01:21:11;15.98;;;10.48;;
20511;SDS011;10414;52.074;5.126;2023-09-08T01:23:56;16.60;;;11.40;;
20511;SDS011;10414;52.074;5.126;2023-09-08T01:26:43;17.65;;;11.25;;
20511;SDS011;10414;52.074;5.126;2023-09-08T01:29:12;16.45;;;11.05;;
20511;SDS011;10414;52.074;5.126;2023-09-08T01:31:49;15.88;;;11.27;;
20511;SDS011;10414;52.074;5.126;2023-09-08T01:34:29;18.00;;;11.52;;
20511;SDS011;10414;52.074;5.126;2023-09-08T01:36:57;17.60;;;11.63;;
20511;SDS011;10414;52.074;5.126;2023-09-08T01:39:29;18.67;;;11.40;;
20511;SDS011;10414;52.074;5.126;2023-09-08T01:42:01;15.50;;;11.52;;
20511;SDS011;10414;52.074;5.126;2023-09-08T01:44:28;16.58;;;11.48;;
20511;SDS011;10414;52.074;5.126;2023-09-08T01:46:55;17.52;;;11.90;;
20511;SDS011;10414;52.074;5.126;2023-09-08T01:49:23;15.90;;;11.25;;
20511;SDS011;10414;52.074;5.126;2023-09-08T01:51:49;15.13;;;11.00;;
20511;SDS011;10414;52.074;5.126;2023-09-08T01:54:18;19.60;;;11.90;;
20511;SDS011;10414;52.074;5.126;2023-09-08T01:56:45;16.63;;;11.93;;
20511;SDS011;10414;52.074;5.126;2023-09-08T01:59:13;19.05;;;12.38;;
20511;SDS011;10414;52.074;5.126;2023-09-08T02:01:40;17.95;;;12.00;;
20511;SDS011;10414;52.074;5.126;2023-09-08T02:04:07;17.45;;;11.77;;
20511;SDS011;10414;52.074;5.126;2023-09-08T02:06:33;15.25;;;10.70;;
20511;SDS011;10414;52.074;5.126;2023-09-08T02:09:00;18.00;;;12.23;;
20511;SDS011;10414;52.074;5.126;2023-09-08T02:11:29;18.95;;;11.75;;
20511;SDS011;10414;52.074;5.126;2023-09-08T02:13:56;17.75;;;11.95;;
20511;SDS011;10414;52.074;5.126;2023-09-08T02:16:24;16.42;;;11.80;;
20511;SDS011;10414;52.074;5.126;2023-09-08T02:18:51;17.10;;;12.05;;
20511;SDS011;10414;52.074;5.126;2023-09-08T02:21:19;17.60;;;11.90;;
20511;SDS011;10414;52.074;5.126;2023-09-08T02:23:47;20.00;;;11.88;;
20511;SDS011;10414;52.074;5.126;2023-09-08T02:26:14;17.40;;;12.18;;
20511;SDS011;10414;52.074;5.126;2023-09-08T02:28:41;17.45;;;12.50;;
20511;SDS011;10414;52.074;5.126;2023-09-08T02:31:11;17.67;;;11.73;;
20511;SDS011;10414;52.074;5.126;2023-09-08T02:33:39;18.88;;;11.35;;
20511;SDS011;10414;52.074;5.126;2023-09-08T02:36:06;20.27;;;12.48;;
20511;SDS011;10414;52.074;5.126;2023-09-08T02:38:33;19.42;;;12.57;;
20511;SDS011;10414;52.074;5.126;2023-09-08T02:41:00;21.73;;;12.70;;
20511;SDS011;10414;52.074;5.126;2023-09-08T02:43:27;18.88;;;12.45;;
20511;SDS011;10414;52.074;5.126;2023-09-08T02:45:55;19.77;;;12.63;;
20511;SDS011;10414;52.074;5.126;2023-09-08T02:48:22;20.70;;;12.27;;
20511;SDS011;10414;52.074;5.126;2023-09-08T02:50:51;17.65;;;12.07;;
20511;SDS011;10414;52.074;5.126;2023-09-08T02:53:21;18.77;;;12.45;;
20511;SDS011;10414;52.074;5.126;2023-09-08T02:55:47;18.98;;;12.88;;
20511;SDS011;10414;52.074;5.126;2023-09-08T02:58:14;18.80;;;12.52;;
20511;SDS011;10414;52.074;5.126;2023-09-08T03:00:41;20.35;;;12.65;;
20511;SDS011;10414;52.074;5.126;2023-09-08T03:03:08;17.52;;;12.43;;
20511;SDS011;10414;52.074;5.126;2023-09-08T03:05:37;19.10;;;13.30;;
20511;SDS011;10414;52.074;5.126;2023-09-08T03:08:05;18.85;;;13.13;;
20511;SDS011;10414;52.074;5.126;2023-09-08T03:10:32;20.02;;;12.77;;
20511;SDS011;10414;52.074;5.126;2023-09-08T03:13:01;20.20;;;12.55;;
20511;SDS011;10414;52.074;5.126;2023-09-08T03:15:30;19.90;;;12.93;;
20511;SDS011;10414;52.074;5.126;2023-09-08T03:17:57;20.08;;;13.55;;
20511;SDS011;10414;52.074;5.126;2023-09-08T03:20:25;17.83;;;12.85;;
20511;SDS011;10414;52.074;5.126;2023-09-08T03:22:55;20.92;;;13.13;;
20511;SDS011;10414;52.074;5.126;2023-09-08T03:25:25;19.17;;;13.05;;
20511;SDS011;10414;52.074;5.126;2023-09-08T03:27:52;19.33;;;12.10;;
20511;SDS011;10414;52.074;5.126;2023-09-08T03:30:19;20.27;;;13.00;;
20511;SDS011;10414;52.074;5.126;2023-09-08T03:32:46;19.00;;;13.45;;
20511;SDS011;10414;52.074;5.126;2023-09-08T03:35:15;21.38;;;13.90;;
20511;SDS011;10414;52.074;5.126;2023-09-08T03:37:42;20.65;;;14.18;;
20511;SDS011;10414;52.074;5.126;2023-09-08T03:40:09;20.52;;;13.80;;
20511;SDS011;10414;52.074;5.126;2023-09-08T03:42:37;21.23;;;13.45;;
20511;SDS011;10414;52.074;5.126;2023-09-08T03:45:06;21.85;;;13.98;;
20511;SDS011;10414;52.074;5.126;2023-09-08T03:47:34;20.15;;;13.77;;
20511;SDS011;10414;52.074;5.126;2023-09-08T03:50:00;21.70;;;14.55;;
20511;SDS011;10414;52.074;5.126;2023-09-08T03:52:27;20.95;;;13.75;;
20511;SDS011;10414;52.074;5.126;2023-09-08T03:54:57;22.40;;;14.32;;
20511;SDS011;10414;52.074;5.126;2023-09-08T03:57:24;23.52;;;13.80;;
20511;SDS011;10414;52.074;5.126;2023-09-08T03:59:52;22.92;;;15.00;;
20511;SDS011;10414;52.074;5.126;2023-09-08T04:02:19;24.73;;;13.80;;
20511;SDS011;10414;52.074;5.126;2023-09-08T04:04:45;20.05;;;13.80;;
20511;SDS011;10414;52.074;5.126;2023-09-08T04:07:12;20.35;;;14.23;;
20511;SDS011;10414;52.074;5.126;2023-09-08T04:09:39;22.60;;;14.80;;
20511;SDS011;10414;52.074;5.126;2023-09-08T04:12:06;22.42;;;14.07;;
20511;SDS011;10414;52.074;5.126;2023-09-08T04:14:34;20.80;;;14.18;;
20511;SDS011;10414;52.074;5.126;2023-09-08T04:17:02;22.92;;;14.27;;
20511;SDS011;10414;52.074;5.126;2023-09-08T04:19:29;19.45;;;14.05;;
20511;SDS011;10414;52.074;5.126;2023-09-08T04:21:58;20.13;;;14.15;;
20511;SDS011;10414;52.074;5.126;2023-09-08T04:24:25;23.52;;;14.65;;
20511;SDS011;10414;52.074;5.126;2023-09-08T04:26:52;19.90;;;14.25;;
20511;SDS011;10414;52.074;5.126;2023-09-08T04:29:18;25.52;;;15.55;;
20511;SDS011;10414;52.074;5.126;2023-09-08T04:31:45;20.35;;;13.90;;
20511;SDS011;10414;52.074;5.126;2023-09-08T04:34:14;21.63;;;14.68;;
20511;SDS011;10414;52.074;5.126;2023-09-08T04:36:40;20.27;;;14.32;;
20511;SDS011;10414;52.074;5.126;2023-09-08T04:39:07;24.38;;;15.18;;
20511;SDS011;10414;52.074;5.126;2023-09-08T04:41:37;21.38;;;13.93;;
20511;SDS011;10414;52.074;5.126;2023-09-08T04:44:04;26.98;;;14.60;;
20511;SDS011;10414;52.074;5.126;2023-09-08T04:46:35;23.20;;;14.90;;
20511;SDS011;10414;52.074;5.126;2023-09-08T04:49:04;22.15;;;14.77;;
20511;SDS011;10414;52.074;5.126;2023-09-08T04:51:32;22.63;;;14.38;;
20511;SDS011;10414;52.074;5.126;2023-09-08T04:53:59;20.42;;;14.85;;
20511;SDS011;10414;52.074;5.126;2023-09-08T04:56:25;20.20;;;14.10;;
20511;SDS011;10414;52.074;5.126;2023-09-08T04:58:55;21.20;;;14.95;;
20511;SDS011;10414;52.074;5.126;2023-09-08T05:01:23;23.52;;;15.40;;
20511;SDS011;10414;52.074;5.126;2023-09-08T05:03:50;21.40;;;14.02;;
20511;SDS011;10414;52.074;5.126;2023-09-08T05:06:20;19.95;;;14.48;;
20511;SDS011;10414;52.074;5.126;2023-09-08T05:08:48;28.23;;;14.60;;
20511;SDS011;10414;52.074;5.126;2023-09-08T05:11:15;20.17;;;13.82;;
20511;SDS011;10414;52.074;5.126;2023-09-08T05:13:42;23.75;;;14.82;;
20511;SDS011;10414;52.074;5.126;2023-09-08T05:16:12;23.33;;;14.80;;
20511;SDS011;10414;52.074;5.126;2023-09-08T05:18:39;22.52;;;14.63;;
20511;SDS011;10414;52.074;5.126;2023-09-08T05:21:07;23.92;;;14.50;;
20511;SDS011;10414;52.074;5.126;2023-09-08T05:23:40;21.90;;;14.27;;
20511;SDS011;10414;52.074;5.126;2023-09-08T05:26:08;24.88;;;15.02;;
20511;SDS011;10414;52.074;5.126;2023-09-08T05:28:35;23.17;;;14.90;;
20511;SDS011;10414;52.074;5.126;2023-09-08T05:31:02;20.60;;;14.48;;
20511;SDS011;10414;52.074;5.126;2023-09-08T05:33:29;21.25;;;14.88;;
20511;SDS011;10414;52.074;5.126;2023-09-08T05:35:59;22.35;;;14.85;;
20511;SDS011;10414;52.074;5.126;2023-09-08T05:38:26;19.73;;;13.85;;
20511;SDS011;10414;52.074;5.126;2023-09-08T05:40:53;19.98;;;13.48;;
20511;SDS011;10414;52.074;5.126;2023-09-08T05:43:22;21.25;;;14.88;;
20511;SDS011;10414;52.074;5.126;2023-09-08T05:45:51;25.08;;;14.63;;
20511;SDS011;10414;52.074;5.126;2023-09-08T05:48:20;20.13;;;14.33;;
20511;SDS011;10414;52.074;5.126;2023-09-08T05:50:47;20.67;;;14.75;;
20511;SDS011;10414;52.074;5.126;2023-09-08T05:53:19;20.47;;;14.57;;
20511;SDS011;10414;52.074;5.126;2023-09-08T05:55:45;20.13;;;13.82;;
20511;SDS011;10414;52.074;5.126;2023-09-08T05:58:12;22.25;;;13.38;;
20511;SDS011;10414;52.074;5.126;2023-09-08T06:00:43;17.75;;;12.38;;
20511;SDS011;10414;52.074;5.126;2023-09-08T06:03:10;18.02;;;13.27;;
20511;SDS011;10414;52.074;5.126;2023-09-08T06:05:37;17.98;;;13.60;;
20511;SDS011;10414;52.074;5.126;2023-09-08T06:08:04;19.88;;;12.75;;
20511;SDS011;10414;52.074;5.126;2023-09-08T06:10:34;18.10;;;13.23;;
20511;SDS011;10414;52.074;5.126;2023-09-08T06:13:00;17.77;;;12.20;;
20511;SDS011;10414;52.074;5.126;2023-09-08T06:15:27;16.13;;;12.65;;
20511;SDS011;10414;52.074;5.126;2023-09-08T06:17:55;18.90;;;12.25;;
20511;SDS011;10414;52.074;5.126;2023-09-08T06:20:22;17.50;;;12.70;;
20511;SDS011;10414;52.074;5.126;2023-09-08T06:22:50;14.75;;;11.43;;
20511;SDS011;10414;52.074;5.126;2023-09-08T06:25:16;19.00;;;11.90;;
20511;SDS011;10414;52.074;5.126;2023-09-08T06:27:44;17.70;;;12.20;;
20511;SDS011;10414;52.074;5.126;2023-09-08T06:30:11;18.13;;;12.02;;
20511;SDS011;10414;52.074;5.126;2023-09-08T06:32:41;17.25;;;12.07;;
20511;SDS011;10414;52.074;5.126;2023-09-08T06:35:09;15.77;;;10.35;;
20511;SDS011;10414;52.074;5.126;2023-09-08T06:37:40;16.65;;;11.60;;
20511;SDS011;10414;52.074;5.126;2023-09-08T06:40:10;19.45;;;12.45;;
20511;SDS011;10414;52.074;5.126;2023-09-08T06:42:36;19.20;;;10.73;;
20511;SDS011;10414;52.074;5.126;2023-09-08T06:45:03;14.40;;;11.60;;
20511;SDS011;10414;52.074;5.126;2023-09-08T06:47:34;15.48;;;12.77;;
20511;SDS011;10414;52.074;5.126;2023-09-08T06:50:00;15.82;;;12.23;;
20511;SDS011;10414;52.074;5.126;2023-09-08T06:52:33;17.55;;;13.30;;
20511;SDS011;10414;52.074;5.126;2023-09-08T06:55:00;17.15;;;12.75;;
20511;SDS011;10414;52.074;5.126;2023-09-08T06:57:27;14.88;;;12.20;;
20511;SDS011;10414;52.074;5.126;2023-09-08T06:59:53;17.83;;;12.88;;
20511;SDS011;10414;52.074;5.126;2023-09-08T07:02:20;16.25;;;11.77;;
20511;SDS011;10414;52.074;5.126;2023-09-08T07:04:49;15.00;;;12.07;;
20511;SDS011;10414;52.074;5.126;2023-09-08T07:07:16;14.60;;;12.45;;
20511;SDS011;10414;52.074;5.126;2023-09-08T07:09:46;14.77;;;11.30;;
20511;SDS011;10414;52.074;5.126;2023-09-08T07:12:13;14.98;;;12.50;;
20511;SDS011;10414;52.074;5.126;2023-09-08T07:14:40;17.92;;;12.45;;
20511;SDS011;10414;52.074;5.126;2023-09-08T07:17:07;19.90;;;12.88;;
20511;SDS011;10414;52.074;5.126;2023-09-08T07:19:33;16.73;;;13.13;;
20511;SDS011;10414;52.074;5.126;2023-09-08T07:22:00;15.50;;;11.98;;
20511;SDS011;10414;52.074;5.126;2023-09-08T07:24:27;17.10;;;12.75;;
20511;SDS011;10414;52.074;5.126;2023-09-08T07:26:55;19.17;;;12.65;;
20511;SDS011;10414;52.074;5.126;2023-09-08T07:29:22;16.90;;;13.32;;
20511;SDS011;10414;52.074;5.126;2023-09-08T07:31:49;16.65;;;12.80;;
20511;SDS011;10414;52.074;5.126;2023-09-08T07:34:16;17.73;;;12.18;;
20511;SDS011;10414;52.074;5.126;2023-09-08T07:36:43;15.00;;;12.52;;
20511;SDS011;10414;52.074;5.126;2023-09-08T07:39:14;19.63;;;12.38;;
20511;SDS011;10414;52.074;5.126;2023-09-08T07:41:41;16.50;;;12.45;;
20511;SDS011;10414;52.074;5.126;2023-09-08T07:44:12;15.05;;;11.88;;
20511;SDS011;10414;52.074;5.126;2023-09-08T07:46:40;16.58;;;13.18;;
20511;SDS011;10414;52.074;5.126;2023-09-08T07:49:11;17.27;;;12.18;;
20511;SDS011;10414;52.074;5.126;2023-09-08T07:51:37;17.30;;;11.85;;
20511;SDS011;10414;52.074;5.126;2023-09-08T07:54:04;17.55;;;12.63;;
20511;SDS011;10414;52.074;5.126;2023-09-08T07:56:31;15.70;;;12.45;;
20511;SDS011;10414;52.074;5.126;2023-09-08T07:58:58;15.60;;;11.73;;
20511;SDS011;10414;52.074;5.126;2023-09-08T08:01:30;12.95;;;11.40;;
20511;SDS011;10414;52.074;5.126;2023-09-08T08:03:57;16.15;;;11.65;;
20511;SDS011;10414;52.074;5.126;2023-09-08T08:06:24;19.33;;;11.85;;
20511;SDS011;10414;52.074;5.126;2023-09-08T08:08:51;13.85;;;11.20;;
20511;SDS011;10414;52.074;5.126;2023-09-08T08:11:18;15.10;;;12.30;;
20511;SDS011;10414;52.074;5.126;2023-09-08T08:13:47;18.73;;;12.98;;
20511;SDS011;10414;52.074;5.126;2023-09-08T08:16:14;13.73;;;11.57;;
20511;SDS011;10414;52.074;5.126;2023-09-08T08:18:43;16.10;;;11.82;;
20511;SDS011;10414;52.074;5.126;2023-09-08T08:21:10;14.65;;;11.57;;
20511;SDS011;10414;52.074;5.126;2023-09-08T08:23:36;17.73;;;11.38;;
20511;SDS011;10414;52.074;5.126;2023-09-08T08:26:03;14.07;;;11.13;;
20511;SDS011;10414;52.074;5.126;2023-09-08T08:28:30;17.60;;;11.90;;
20511;SDS011;10414;52.074;5.126;2023-09-08T08:30:57;15.93;;;12.68;;
20511;SDS011;10414;52.074;5.126;2023-09-08T08:33:26;13.98;;;11.27;;
20511;SDS011;10414;52.074;5.126;2023-09-08T08:35:55;15.75;;;12.18;;
20511;SDS011;10414;52.074;5.126;2023-09-08T08:38:22;17.92;;;12.00;;
20511;SDS011;10414;52.074;5.126;2023-09-08T08:40:49;14.32;;;12.20;;
20511;SDS011;10414;52.074;5.126;2023-09-08T08:43:18;16.67;;;10.95;;
20511;SDS011;10414;52.074;5.126;2023-09-08T08:45:49;16.17;;;11.90;;
20511;SDS011;10414;52.074;5.126;2023-09-08T08:48:20;15.93;;;11.77;;
20511;SDS011;10414;52.074;5.126;2023-09-08T08:50:50;16.20;;;11.05;;
20511;SDS011;10414;52.074;5.126;2023-09-08T08:53:19;14.65;;;11.20;;
20511;SDS011;10414;52.074;5.126;2023-09-08T08:55:47;14.20;;;10.98;;
20511;SDS011;10414;52.074;5.126;2023-09-08T08:58:17;17.42;;;10.82;;
20511;SDS011;10414;52.074;5.126;2023-09-08T09:00:52;13.45;;;10.20;;
20511;SDS011;10414;52.074;5.126;2023-09-08T09:03:21;11.32;;;9.05;;
20511;SDS011;10414;52.074;5.126;2023-09-08T09:05:50;13.88;;;9.75;;
20511;SDS011;10414;52.074;5.126;2023-09-08T09:08:21;15.10;;;10.90;;
20511;SDS011;10414;52.074;5.126;2023-09-08T09:10:50;16.75;;;10.30;;
20511;SDS011;10414;52.074;5.126;2023-09-08T09:13:17;11.70;;;9.23;;
20511;SDS011;10414;52.074;5.126;2023-09-08T09:15:44;14.23;;;9.77;;
20511;SDS011;10414;52.074;5.126;2023-09-08T09:18:12;13.95;;;9.50;;
20511;SDS011;10414;52.074;5.126;2023-09-08T09:20:39;15.77;;;10.15;;
20511;SDS011;10414;52.074;5.126;2023-09-08T09:23:07;15.32;;;9.73;;
20511;SDS011;10414;52.074;5.126;2023-09-08T09:25:36;13.23;;;9.98;;
20511;SDS011;10414;52.074;5.126;2023-09-08T09:28:04;12.13;;;10.30;;
20511;SDS011;10414;52.074;5.126;2023-09-08T09:30:45;12.23;;;9.00;;
20511;SDS011;10414;52.074;5.126;2023-09-08T09:33:14;12.45;;;9.80;;
20511;SDS011;10414;52.074;5.126;2023-09-08T09:35:42;11.40;;;9.20;;
20511;SDS011;10414;52.074;5.126;2023-09-08T09:38:13;12.95;;;9.93;;
20511;SDS011;10414;52.074;5.126;2023-09-08T09:40:43;11.82;;;8.80;;
20511;SDS011;10414;52.074;5.126;2023-09-08T09:43:10;9.57;;;7.43;;
20511;SDS011;10414;52.074;5.126;2023-09-08T09:45:38;11.27;;;8.93;;
20511;SDS011;10414;52.074;5.126;2023-09-08T09:48:06;9.77;;;7.68;;
20511;SDS011;10414;52.074;5.126;2023-09-08T09:53:07;10.80;;;8.13;;
20511;SDS011;10414;52.074;5.126;2023-09-08T09:55:38;14.95;;;8.65;;
20511;SDS011;10414;52.074;5.126;2023-09-08T09:58:07;16.07;;;9.00;;
20511;SDS011;10414;52.074;5.126;2023-09-08T10:00:35;14.07;;;8.85;;
20511;SDS011;10414;52.074;5.126;2023-09-08T10:03:03;11.77;;;7.65;;
20511;SDS011;10414;52.074;5.126;2023-09-08T10:05:31;12.68;;;8.23;;
20511;SDS011;10414;52.074;5.126;2023-09-08T10:07:59;14.43;;;7.95;;
20511;SDS011;10414;52.074;5.126;2023-09-08T10:10:27;10.95;;;7.75;;
20511;SDS011;10414;52.074;5.126;2023-09-08T10:12:57;13.18;;;7.22;;
20511;SDS011;10414;52.074;5.126;2023-09-08T10:15:33;11.98;;;7.85;;
20511;SDS011;10414;52.074;5.126;2023-09-08T10:18:03;10.82;;;7.95;;
20511;SDS011;10414;52.074;5.126;2023-09-08T10:20:31;11.95;;;8.30;;
20511;SDS011;10414;52.074;5.126;2023-09-08T10:23:04;9.82;;;6.55;;
20511;SDS011;10414;52.074;5.126;2023-09-08T10:25:35;12.48;;;7.50;;
20511;SDS011;10414;52.074;5.126;2023-09-08T10:28:09;12.02;;;8.40;;
20511;SDS011;10414;52.074;5.126;2023-09-08T10:30:38;14.15;;;8.07;;
20511;SDS011;10414;52.074;5.126;2023-09-08T10:33:07;11.45;;;7.78;;
20511;SDS011;10414;52.074;5.126;2023-09-08T10:35:34;11.65;;;8.80;;
20511;SDS011;10414;52.074;5.126;2023-09-08T10:40:51;12.95;;;8.80;;
20511;SDS011;10414;52.074;5.126;2023-09-08T10:43:18;12.60;;;8.07;;
20511;SDS011;10414;52.074;5.126;2023-09-08T10:45:47;10.27;;;7.65;;
20511;SDS011;10414;52.074;5.126;2023-09-08T10:48:14;12.27;;;8.00;;
20511;SDS011;10414;52.074;5.126;2023-09-08T10:50:41;10.93;;;6.70;;
20511;SDS011;10414;52.074;5.126;2023-09-08T10:53:18;10.98;;;7.10;;
20511;SDS011;10414;52.074;5.126;2023-09-08T10:55:46;12.00;;;7.18;;
20511;SDS011;10414;52.074;5.126;2023-09-08T10:58:17;13.57;;;7.40;;
20511;SDS011;10414;52.074;5.126;2023-09-08T11:00:51;11.43;;;7.65;;
20511;SDS011;10414;52.074;5.126;2023-09-08T11:03:25;12.95;;;7.50;;
20511;SDS011;10414;52.074;5.126;2023-09-08T11:05:54;11.13;;;6.90;;
20511;SDS011;10414;52.074;5.126;2023-09-08T11:08:21;10.50;;;8.02;;
20511;SDS011;10414;52.074;5.126;2023-09-08T11:10:48;12.20;;;8.00;;
20511;SDS011;10414;52.074;5.126;2023-09-08T11:13:16;10.85;;;8.20;;
20511;SDS011;10414;52.074;5.126;2023-09-08T11:15:44;12.05;;;7.75;;
20511;SDS011;10414;52.074;5.126;2023-09-08T11:18:12;10.27;;;6.60;;
20511;SDS011;10414;52.074;5.126;2023-09-08T11:20:39;10.57;;;6.03;;
20511;SDS011;10414;52.074;5.126;2023-09-08T11:23:06;11.05;;;7.25;;
20511;SDS011;10414;52.074;5.126;2023-09-08T11:25:36;10.35;;;6.63;;
20511;SDS011;10414;52.074;5.126;2023-09-08T11:28:06;11.57;;;7.72;;
20511;SDS011;10414;52.074;5.126;2023-09-08T11:30:32;12.93;;;7.88;;
20511;SDS011;10414;52.074;5.126;2023-09-08T11:33:00;12.15;;;6.40;;
20511;SDS011;10414;52.074;5.126;2023-09-08T11:35:31;10.00;;;6.60;;
20511;SDS011;10414;52.074;5.126;2023-09-08T11:38:00;11.40;;;7.30;;
20511;SDS011;10414;52.074;5.126;2023-09-08T11:40:30;12.10;;;7.30;;
20511;SDS011;10414;52.074;5.126;2023-09-08T11:42:59;9.57;;;6.60;;
20511;SDS011;10414;52.074;5.126;2023-09-08T11:45:26;12.32;;;7.70;;
20511;SDS011;10414;52.074;5.126;2023-09-08T11:47:53;12.02;;;7.43;;
20511;SDS011;10414;52.074;5.126;2023-09-08T11:50:23;13.07;;;7.50;;
20511;SDS011;10414;52.074;5.126;2023-09-08T11:52:51;10.40;;;7.70;;
20511;SDS011;10414;52.074;5.126;2023-09-08T11:55:20;10.55;;;7.25;;
20511;SDS011;10414;52.074;5.126;2023-09-08T11:57:50;10.30;;;7.88;;
20511;SDS011;10414;52.074;5.126;2023-09-08T12:00:22;12.38;;;7.47;;
20511;SDS011;10414;52.074;5.126;2023-09-08T12:02:51;12.43;;;9.05;;
20511;SDS011;10414;52.074;5.126;2023-09-08T12:05:21;12.48;;;9.18;;
20511;SDS011;10414;52.074;5.126;2023-09-08T12:07:51;11.93;;;8.90;;
20511;SDS011;10414;52.074;5.126;2023-09-08T12:10:18;13.50;;;9.88;;
20511;SDS011;10414;52.074;5.126;2023-09-08T12:12:46;15.85;;;9.38;;
20511;SDS011;10414;52.074;5.126;2023-09-08T12:15:29;16.40;;;9.05;;
20511;SDS011;10414;52.074;5.126;2023-09-08T12:17:57;12.27;;;8.45;;
20511;SDS011;10414;52.074;5.126;2023-09-08T12:20:25;11.27;;;8.10;;
20511;SDS011;10414;52.074;5.126;2023-09-08T12:22:53;15.20;;;7.55;;
20511;SDS011;10414;52.074;5.126;2023-09-08T12:25:20;11.48;;;7.45;;
20511;SDS011;10414;52.074;5.126;2023-09-08T12:27:49;11.77;;;8.27;;
20511;SDS011;10414;52.074;5.126;2023-09-08T12:30:17;11.00;;;8.13;;
20511;SDS011;10414;52.074;5.126;2023-09-08T12:32:55;10.18;;;7.47;;
20511;SDS011;10414;52.074;5.126;2023-09-08T12:35:24;9.15;;;7.22;;
20511;SDS011;10414;52.074;5.126;2023-09-08T12:37:56;10.13;;;7.97;;
20511;SDS011;10414;52.074;5.126;2023-09-08T12:40:24;15.38;;;7.72;;
20511;SDS011;10414;52.074;5.126;2023-09-08T12:42:51;12.00;;;7.15;;
20511;SDS011;10414;52.074;5.126;2023-09-08T12:45:18;12.38;;;7.13;;
20511;SDS011;10414;52.074;5.126;2023-09-08T12:47:46;8.60;;;6.55;;
20511;SDS011;10414;52.074;5.126;2023-09-08T12:50:13;11.70;;;6.80;;
20511;SDS011;10414;52.074;5.126;2023-09-08T12:52:42;11.70;;;7.20;;
20511;SDS011;10414;52.074;5.126;2023-09-08T12:55:10;11.55;;;6.78;;
20511;SDS011;10414;52.074;5.126;2023-09-08T12:57:37;8.95;;;7.13;;
20511;SDS011;10414;52.074;5.126;2023-09-08T13:00:04;9.55;;;6.63;;
20511;SDS011;10414;52.074;5.126;2023-09-08T13:02:32;10.88;;;5.95;;
20511;SDS011;10414;52.074;5.126;2023-09-08T13:04:59;12.48;;;6.30;;
20511;SDS011;10414;52.074;5.126;2023-09-08T13:07:26;8.80;;;6.32;;
20511;SDS011;10414;52.074;5.126;2023-09-08T13:09:53;12.32;;;6.97;;
20511;SDS011;10414;52.074;5.126;2023-09-08T13:12:22;9.32;;;7.43;;
20511;SDS011;10414;52.074;5.126;2023-09-08T13:14:50;9.43;;;6.15;;
20511;SDS011;10414;52.074;5.126;2023-09-08T13:17:17;9.65;;;5.95;;
20511;SDS011;10414;52.074;5.126;2023-09-08T13:19:44;9.00;;;6.50;;
20511;SDS011;10414;52.074;5.126;2023-09-08T13:22:11;9.88;;;5.95;;
20511;SDS011;10414;52.074;5.126;2023-09-08T13:24:40;9.15;;;6.28;;
20511;SDS011;10414;52.074;5.126;2023-09-08T13:27:07;11.75;;;6.30;;
20511;SDS011;10414;52.074;5.126;2023-09-08T13:29:35;9.60;;;6.00;;
20511;SDS011;10414;52.074;5.126;2023-09-08T13:32:03;10.13;;;5.68;;
20511;SDS011;10414;52.074;5.126;2023-09-08T13:34:30;9.57;;;6.03;;
20511;SDS011;10414;52.074;5.126;2023-09-08T13:37:02;8.45;;;5.97;;
20511;SDS011;10414;52.074;5.126;2023-09-08T13:39:31;9.85;;;6.43;;
20511;SDS011;10414;52.074;5.126;2023-09-08T13:42:01;8.23;;;5.97;;
20511;SDS011;10414;52.074;5.126;2023-09-08T13:44:28;10.45;;;6.03;;
20511;SDS011;10414;52.074;5.126;2023-09-08T13:46:57;8.88;;;5.97;;
20511;SDS011;10414;52.074;5.126;2023-09-08T13:49:25;9.83;;;5.43;;
20511;SDS011;10414;52.074;5.126;2023-09-08T13:51:52;10.50;;;5.87;;
20511;SDS011;10414;52.074;5.126;2023-09-08T13:54:22;11.20;;;5.88;;
20511;SDS011;10414;52.074;5.126;2023-09-08T13:56:57;10.48;;;6.32;;
20511;SDS011;10414;52.074;5.126;2023-09-08T13:59:27;12.63;;;6.15;;
20511;SDS011;10414;52.074;5.126;2023-09-08T14:01:55;10.18;;;5.47;;
20511;SDS011;10414;52.074;5.126;2023-09-08T14:04:26;7.15;;;4.88;;
20511;SDS011;10414;52.074;5.126;2023-09-08T14:06:53;10.38;;;5.22;;
20511;SDS011;10414;52.074;5.126;2023-09-08T14:09:23;7.45;;;5.05;;
20511;SDS011;10414;52.074;5.126;2023-09-08T14:11:51;6.30;;;4.80;;
20511;SDS011;10414;52.074;5.126;2023-09-08T14:14:18;9.77;;;5.28;;
20511;SDS011;10414;52.074;5.126;2023-09-08T14:16:44;9.18;;;5.38;;
20511;SDS011;10414;52.074;5.126;2023-09-08T14:19:13;10.73;;;5.63;;
20511;SDS011;10414;52.074;5.126;2023-09-08T14:21:40;7.95;;;5.65;;
20511;SDS011;10414;52.074;5.126;2023-09-08T14:24:06;8.18;;;5.53;;
20511;SDS011;10414;52.074;5.126;2023-09-08T14:26:33;8.20;;;5.70;;
20511;SDS011;10414;52.074;5.126;2023-09-08T14:29:00;8.02;;;5.80;;
20511;SDS011;10414;52.074;5.126;2023-09-08T14:31:28;9.95;;;5.43;;
20511;SDS011;10414;52.074;5.126;2023-09-08T14:33:55;6.75;;;5.63;;
20511;SDS011;10414;52.074;5.126;2023-09-08T14:36:23;10.95;;;5.97;;
20511;SDS011;10414;52.074;5.126;2023-09-08T14:38:50;8.70;;;5.43;;
20511;SDS011;10414;52.074;5.126;2023-09-08T14:41:17;7.93;;;5.18;;